Time;durP1;ratioP1;P1;durP2;ratioP2;P2;SDS_P1;SDS_P2;PMS_P1;PMS_P2;Temp;Humidity;BMP_temperature;BMP_pressure;BME280_temperature;BME280_humidity;BME280_pressure;Samples;Min_cycle;Max_cycle;Signal;HPM_P1;HPM_P2
2023/09/15 00:06:16;;;;;;;5.25;3.97;;;13.20;99.90;;;;;;25593414;23;20002;-63
2023/09/15 00:16:18;;;;;;;4.95;4.32;;;13.40;99.90;;;;;;25566784;23;20087;-63
2023/09/15 00:26:23;;;;;;;7.90;4.68;;;13.40;99.90;;;;;;25592566;23;20009;-64
2023/09/15 00:36:26;;;;;;;6.53;5.57;;;13.50;99.90;;;;;;25631767;23;20147;-64
2023/09/15 00:46:30;;;;;;;6.43;5.40;;;13.90;99.90;;;;;;25589797;23;20001;-64
2023/09/15 00:56:32;;;;;;;7.43;5.30;;;14.10;99.90;;;;;;25589897;23;20478;-64
2023/09/15 01:06:37;;;;;;;6.57;4.90;;;13.90;99.90;;;;;;25590765;23;20495;-64
2023/09/15 01:16:56;;;;;;;6.85;4.78;;;13.90;99.90;;;;;;25631824;23;20015;-64
2023/09/15 01:27:30;;;;;;;6.15;5.32;;;13.80;99.90;;;;;;25626602;23;20098;-64
2023/09/15 01:37:32;;;;;;;6.85;5.47;;;13.70;99.90;;;;;;25631147;23;20020;-64
2023/09/15 01:47:35;;;;;;;6.22;4.90;;;13.70;99.90;;;;;;25589445;23;20005;-64
2023/09/15 01:57:38;;;;;;;5.25;4.50;;;13.90;99.90;;;;;;25562123;23;20005;-64
2023/09/15 02:07:40;;;;;;;5.05;4.10;;;14.10;99.90;;;;;;25586804;23;20005;-64
2023/09/15 02:17:43;;;;;;;3.15;2.85;;;14.20;99.90;;;;;;25586831;23;20001;-64
2023/09/15 02:27:44;;;;;;;2.42;1.77;;;14.30;99.90;;;;;;25587257;23;20005;-64
2023/09/15 02:37:46;;;;;;;1.70;1.50;;;14.40;99.90;;;;;;25587513;23;20035;-64
2023/09/15 02:47:48;;;;;;;2.97;1.70;;;14.50;99.90;;;;;;25586008;23;20008;-64
2023/09/15 02:57:52;;;;;;;2.05;1.60;;;14.50;99.90;;;;;;25585627;23;20005;-64
2023/09/15 03:07:54;;;;;;;2.00;1.80;;;14.10;99.90;;;;;;25562684;23;20080;-63
2023/09/15 03:17:57;;;;;;;2.95;1.65;;;13.60;99.90;;;;;;25568637;23;20009;-63
2023/09/15 03:27:59;;;;;;;2.95;2.15;;;13.10;99.90;;;;;;25592485;23;20067;-64
2023/09/15 03:38:01;;;;;;;2.65;2.45;;;13.10;99.90;;;;;;25567546;23;20032;-63
2023/09/15 03:48:04;;;;;;;2.65;2.40;;;13.00;99.90;;;;;;25592749;23;20005;-64
2023/09/15 03:58:06;;;;;;;2.70;2.38;;;12.90;99.90;;;;;;25566478;23;20005;-64
2023/09/15 04:08:08;;;;;;;3.00;2.70;;;12.70;99.90;;;;;;25592864;23;20344;-63
2023/09/15 04:18:09;;;;;;;4.45;3.53;;;12.50;99.90;;;;;;25591885;23;20008;-63
2023/09/15 04:28:13;;;;;;;3.95;3.35;;;12.30;99.90;;;;;;25589805;23;20009;-63
2023/09/15 04:38:17;;;;;;;5.80;4.40;;;12.20;99.90;;;;;;25565085;23;20005;-64
2023/09/15 04:48:19;;;;;;;4.18;2.65;;;12.10;99.90;;;;;;25589476;23;20005;-63
2023/09/15 04:58:21;;;;;;;4.13;3.03;;;12.20;99.90;;;;;;25564388;23;20001;-63
2023/09/15 05:08:23;;;;;;;3.30;3.00;;;12.30;99.90;;;;;;25590040;23;20005;-63
2023/09/15 05:18:25;;;;;;;3.38;3.00;;;12.30;99.90;;;;;;25588031;23;20005;-63
2023/09/15 05:28:27;;;;;;;3.80;2.97;;;12.40;99.90;;;;;;25586975;23;20335;-63
2023/09/15 05:38:29;;;;;;;3.63;3.17;;;12.60;99.90;;;;;;25331304;23;20018;-54
2023/09/15 05:48:31;;;;;;;2.97;2.53;;;12.60;99.90;;;;;;25306923;23;20014;-54
2023/09/15 05:58:32;;;;;;;4.45;3.08;;;12.80;99.90;;;;;;25331206;23;20009;-63
2023/09/15 06:08:34;;;;;;;3.13;2.75;;;13.10;99.90;;;;;;25367650;23;20372;-55
2023/09/15 06:18:36;;;;;;;3.00;2.70;;;13.40;99.90;;;;;;25587891;23;20008;-64
2023/09/15 06:28:38;;;;;;;3.05;2.60;;;13.60;99.90;;;;;;25585723;23;20013;-64
2023/09/15 06:38:39;;;;;;;3.58;2.92;;;13.90;99.90;;;;;;25587778;23;20067;-64
2023/09/15 06:48:41;;;;;;;2.67;2.28;;;14.40;99.90;;;;;;25587179;23;20089;-64
2023/09/15 06:58:43;;;;;;;2.88;2.58;;;14.60;99.90;;;;;;25587041;23;20008;-64
2023/09/15 07:08:45;;;;;;;2.85;2.40;;;14.70;99.90;;;;;;25586826;23;20005;-64
2023/09/15 07:18:47;;;;;;;2.15;1.95;;;15.10;99.90;;;;;;25586753;23;20013;-55
2023/09/15 07:28:48;;;;;;;1.55;1.40;;;16.10;99.90;;;;;;25586756;23;20009;-65
2023/09/15 07:38:50;;;;;;;3.55;2.20;;;17.20;99.90;;;;;;25586673;23;20044;-64
2023/09/15 07:48:52;;;;;;;2.63;2.38;;;18.00;99.90;;;;;;25586937;23;20021;-57
2023/09/15 07:58:54;;;;;;;4.57;3.95;;;18.20;99.90;;;;;;25590946;23;20309;-63
2023/09/15 08:08:56;;;;;;;1.80;1.63;;;18.90;99.90;;;;;;25593572;23;20005;-55
2023/09/15 08:18:58;;;;;;;3.13;2.03;;;19.20;99.90;;;;;;25592858;23;20344;-54
2023/09/15 08:29:00;;;;;;;2.17;1.80;;;19.50;99.90;;;;;;25592046;23;20013;-61
2023/09/15 08:39:02;;;;;;;2.50;2.00;;;20.40;99.90;;;;;;25591682;23;20380;-61
2023/09/15 08:49:05;;;;;;;3.83;1.92;;;21.30;99.90;;;;;;25591458;23;20001;-53
2023/09/15 08:59:08;;;;;;;2.28;1.40;;;23.00;99.90;;;;;;25591229;23;20061;-61
2023/09/15 09:09:11;;;;;;;1.95;1.75;;;24.40;99.90;;;;;;25590074;23;20079;-63
2023/09/15 09:19:13;;;;;;;6.45;5.88;;;23.20;99.90;;;;;;25590494;23;20008;-63
2023/09/15 09:29:16;;;;;;;8.23;7.20;;;21.30;99.90;;;;;;25589949;23;20009;-64
2023/09/15 09:39:18;;;;;;;8.25;7.28;;;19.00;99.90;;;;;;25589911;23;20009;-63
2023/09/15 09:49:21;;;;;;;7.20;6.10;;;17.50;99.90;;;;;;25538764;23;20009;-63
2023/09/15 09:59:25;;;;;;;7.30;6.60;;;17.00;99.90;;;;;;25589346;23;20085;-63
2023/09/15 10:09:30;;;;;;;9.35;8.00;;;16.80;99.90;;;;;;25588698;23;20092;-63
2023/09/15 10:19:32;;;;;;;9.02;7.47;;;16.90;99.90;;;;;;25587795;23;20281;-63
2023/09/15 10:29:37;;;;;;;10.40;6.50;;;17.60;99.90;;;;;;25587535;23;20009;-62
2023/09/15 10:39:44;;;;;;;6.32;5.72;;;19.50;99.90;;;;;;25587873;23;20306;-60
2023/09/15 10:49:53;;;;;;;4.50;4.03;;;20.90;99.90;;;;;;25628869;23;20005;-62
2023/09/15 10:59:56;;;;;;;4.22;3.83;;;21.00;99.90;;;;;;25587300;23;20009;-63
2023/09/15 11:09:59;;;;;;;4.45;4.05;;;20.60;99.90;;;;;;25584783;23;20344;-55
2023/09/15 11:20:05;;;;;;;6.53;4.60;;;19.90;99.90;;;;;;25586949;23;20001;-64
2023/09/15 11:30:07;;;;;;;8.20;7.40;;;19.60;99.90;;;;;;25563301;23;20087;-64
2023/09/15 11:40:22;;;;;;;6.82;6.22;;;19.10;99.90;;;;;;25594780;23;20001;-63
2023/09/15 11:50:25;;;;;;;6.72;5.60;;;18.90;99.90;;;;;;25635771;23;20051;-63
2023/09/15 12:00:32;;;;;;;7.45;6.07;;;19.50;99.90;;;;;;25594686;23;20101;-65
2023/09/15 12:10:33;;;;;;;6.90;5.50;;;20.10;99.90;;;;;;25634090;23;20001;-62
2023/09/15 12:20:38;;;;;;;7.28;6.57;;;21.00;99.90;;;;;;25593092;23;20005;-59
2023/09/15 12:30:45;;;;;;;7.32;5.65;;;23.10;99.90;;;;;;25592438;23;20021;-59
2023/09/15 12:40:49;;;;;;;4.65;4.18;;;23.90;99.90;;;;;;25632503;23;20340;-60
2023/09/15 12:50:50;;;;;;;4.18;3.38;;;23.70;99.90;;;;;;25591540;23;20006;-60
2023/09/15 13:00:52;;;;;;;2.10;1.77;;;23.30;99.90;;;;;;25591326;23;20005;-59
2023/09/15 13:10:54;;;;;;;2.63;2.38;;;23.80;99.90;;;;;;25590478;23;20001;-58
2023/09/15 13:20:57;;;;;;;3.45;3.15;;;24.50;99.90;;;;;;25590717;23;20020;-60
2023/09/15 13:31:00;;;;;;;3.95;3.40;;;24.50;99.60;;;;;;25563362;23;20017;-56
2023/09/15 13:41:02;;;;;;;4.45;4.05;;;24.40;99.80;;;;;;25590222;23;20383;-64
2023/09/15 13:51:04;;;;;;;6.72;5.82;;;22.90;99.90;;;;;;25589146;23;20425;-64
2023/09/15 14:01:07;;;;;;;10.90;7.53;;;21.70;99.90;;;;;;25588758;23;20079;-56
2023/09/15 14:11:10;;;;;;;10.05;6.60;;;21.20;99.90;;;;;;25588353;23;20000;-57
2023/09/15 14:21:13;;;;;;;8.18;7.38;;;21.20;99.90;;;;;;25561446;23;20039;-64
2023/09/15 14:31:15;;;;;;;9.27;8.02;;;20.70;99.90;;;;;;25587868;23;20009;-64
2023/09/15 14:41:16;;;;;;;6.47;5.88;;;20.00;99.90;;;;;;25587885;23;20384;-55
2023/09/15 14:51:21;;;;;;;5.90;5.18;;;19.90;99.90;;;;;;25587482;23;20047;-58
2023/09/15 15:01:24;;;;;;;4.43;3.80;;;19.80;99.90;;;;;;25586630;23;20032;-61
2023/09/15 15:11:26;;;;;;;5.43;3.72;;;19.50;99.90;;;;;;25595246;23;20005;-61
2023/09/15 15:21:28;;;;;;;4.60;4.07;;;19.20;99.90;;;;;;25594902;23;20147;-55
2023/09/15 15:31:31;;;;;;;4.18;3.78;;;19.00;99.90;;;;;;25594428;23;20009;-61
2023/09/15 15:41:33;;;;;;;5.80;4.50;;;18.80;99.90;;;;;;25593732;23;20448;-60
2023/09/15 15:51:35;;;;;;;5.72;5.13;;;18.40;99.90;;;;;;25593677;23;20001;-52
2023/09/15 16:01:37;;;;;;;5.55;4.88;;;18.00;99.90;;;;;;25593488;23;20004;-60
2023/09/15 16:11:38;;;;;;;7.10;5.50;;;17.90;99.90;;;;;;25593020;23;20009;-61
2023/09/15 16:21:40;;;;;;;6.32;4.90;;;17.80;99.90;;;;;;25592239;23;20005;-54
2023/09/15 16:31:42;;;;;;;6.35;5.75;;;17.70;99.90;;;;;;25591914;23;20063;-60
2023/09/15 16:41:44;;;;;;;6.00;5.40;;;17.30;99.90;;;;;;25592388;23;20120;-60
2023/09/15 16:51:45;;;;;;;5.80;5.20;;;16.90;99.90;;;;;;25592350;23;20001;-60
2023/09/15 17:01:48;;;;;;;6.10;5.50;;;16.70;99.90;;;;;;25591562;23;20032;-60
2023/09/15 17:11:50;;;;;;;6.80;5.60;;;16.30;99.90;;;;;;25591333;23;20436;-59
2023/09/15 17:21:51;;;;;;;11.05;6.65;;;16.00;99.90;;;;;;25590934;23;20012;-59
2023/09/15 17:31:53;;;;;;;8.73;6.80;;;15.50;99.90;;;;;;25590325;23;20432;-59
2023/09/15 17:41:55;;;;;;;7.50;6.70;;;14.90;99.90;;;;;;25563852;23;20013;-61
2023/09/15 17:51:57;;;;;;;9.00;6.97;;;14.50;99.90;;;;;;25591197;23;20079;-59
2023/09/15 18:01:58;;;;;;;10.73;8.23;;;14.10;99.90;;;;;;25589281;23;20388;-59
2023/09/15 18:12:00;;;;;;;9.48;7.55;;;14.10;99.90;;;;;;25589018;23;20380;-59
2023/09/15 18:22:02;;;;;;;9.25;7.60;;;14.10;99.90;;;;;;25588865;23;20012;-60
2023/09/15 18:32:04;;;;;;;9.77;7.75;;;14.20;99.90;;;;;;25587853;23;20076;-59
2023/09/15 18:42:06;;;;;;;14.07;10.30;;;14.00;99.90;;;;;;25585640;23;20452;-59
2023/09/15 18:52:08;;;;;;;17.00;11.48;;;13.60;99.90;;;;;;25586310;23;20309;-59
2023/09/15 19:02:10;;;;;;;15.85;11.40;;;13.00;99.90;;;;;;25558226;23;20336;-59
2023/09/15 19:12:12;;;;;;;18.55;12.75;;;12.50;99.90;;;;;;25587107;23;20001;-58
2023/09/15 19:22:14;;;;;;;16.55;11.65;;;12.20;99.90;;;;;;25587163;23;20317;-58
2023/09/15 19:32:15;;;;;;;17.35;11.65;;;12.00;99.90;;;;;;25586515;23;20020;-58
2023/09/15 19:42:17;;;;;;;24.98;15.20;;;11.70;99.90;;;;;;25586721;23;20487;-58
2023/09/15 19:52:19;;;;;;;18.30;12.68;;;11.60;99.90;;;;;;25590141;23;19997;-59
2023/09/15 20:02:21;;;;;;;24.10;15.38;;;11.60;99.90;;;;;;25593670;23;20005;-58
2023/09/15 20:12:26;;;;;;;23.42;14.70;;;11.40;99.90;;;;;;25593270;23;20436;-58
2023/09/15 20:22:27;;;;;;;27.02;16.63;;;11.40;99.90;;;;;;25594219;23;20376;-58
2023/09/15 20:32:29;;;;;;;19.90;13.82;;;11.30;99.90;;;;;;25592328;23;20005;-59
2023/09/15 20:42:31;;;;;;;16.52;11.32;;;11.20;99.90;;;;;;25590423;23;20016;-58
2023/09/15 20:52:33;;;;;;;15.77;10.80;;;11.10;99.90;;;;;;25591717;23;20051;-59
2023/09/15 21:02:35;;;;;;;14.13;10.38;;;11.20;99.90;;;;;;25564844;23;20440;-61
2023/09/15 21:12:39;;;;;;;14.02;9.90;;;11.40;99.90;;;;;;25591317;23;20326;-58
2023/09/15 21:22:41;;;;;;;11.85;8.57;;;11.30;99.90;;;;;;25590217;23;20012;-58
2023/09/15 21:32:43;;;;;;;13.50;9.90;;;11.30;99.90;;;;;;25590239;23;20013;-59
2023/09/15 21:42:45;;;;;;;11.90;9.02;;;11.30;99.90;;;;;;25589986;23;20028;-49
2023/09/15 21:52:47;;;;;;;11.93;9.18;;;11.10;99.90;;;;;;25563462;23;20001;-58
2023/09/15 22:02:49;;;;;;;11.68;8.55;;;11.10;99.90;;;;;;25589239;23;20013;-58
2023/09/15 22:12:51;;;;;;;14.75;9.82;;;11.10;99.90;;;;;;25588430;23;20100;-50
2023/09/15 22:22:55;;;;;;;16.45;10.85;;;11.00;99.90;;;;;;25588422;23;20071;-52
2023/09/15 22:32:56;;;;;;;18.98;12.63;;;10.90;99.90;;;;;;25588255;23;20079;-52
2023/09/15 22:42:58;;;;;;;23.88;14.60;;;10.90;99.90;;;;;;25588399;23;20476;-58
2023/09/15 22:53:00;;;;;;;23.20;13.50;;;10.80;99.90;;;;;;25586658;23;20005;-51
2023/09/15 23:03:03;;;;;;;21.92;14.88;;;11.00;99.90;;;;;;25587734;23;20001;-52
2023/09/15 23:13:05;;;;;;;29.20;15.57;;;11.00;99.90;;;;;;25587676;23;20009;-52
2023/09/15 23:23:07;;;;;;;27.95;16.55;;;11.10;99.90;;;;;;25587530;23;20005;-51
2023/09/15 23:33:09;;;;;;;22.33;14.38;;;11.30;99.90;;;;;;25595500;23;20559;-54
2023/09/15 23:43:10;;;;;;;19.52;13.85;;;11.60;99.90;;;;;;25595191;23;20306;-52
2023/09/15 23:53:12;;;;;;;24.17;15.80;;;11.60;99.90;;;;;;25593595;23;20009;-59
